sensor_id;sensor_type;location;lat;lon;timestamp;temperature;humidity
13589;DHT22;6865;52.552;13.434;2022-12-18T00:01:20;-4.00;99.90
13589;DHT22;6865;52.552;13.434;2022-12-18T00:03:47;-3.90;99.90
13589;DHT22;6865;52.552;13.434;2022-12-18T00:06:15;-3.90;99.90
13589;DHT22;6865;52.552;13.434;2022-12-18T00:08:43;-3.90;99.90
13589;DHT22;6865;52.552;13.434;2022-12-18T00:11:12;-3.90;99.90
13589;DHT22;6865;52.552;13.434;2022-12-18T00:13:39;-3.90;99.90
13589;DHT22;6865;52.552;13.434;2022-12-18T00:16:09;-3.80;99.90
13589;DHT22;6865;52.552;13.434;2022-12-18T00:18:37;-4.00;99.90
13589;DHT22;6865;52.552;13.434;2022-12-18T00:21:07;-4.00;99.90
13589;DHT22;6865;52.552;13.434;2022-12-18T00:23:35;-4.10;99.90
13589;DHT22;6865;52.552;13.434;2022-12-18T00:26:06;-4.10;99.90
13589;DHT22;6865;52.552;13.434;2022-12-18T00:28:33;-3.90;99.90
13589;DHT22;6865;52.552;13.434;2022-12-18T00:31:05;-4.20;99.90
13589;DHT22;6865;52.552;13.434;2022-12-18T00:33:33;-4.20;99.90
13589;DHT22;6865;52.552;13.434;2022-12-18T00:36:04;-4.20;99.90
13589;DHT22;6865;52.552;13.434;2022-12-18T00:38:31;-4.20;99.90
13589;DHT22;6865;52.552;13.434;2022-12-18T00:40:58;-4.30;99.90
13589;DHT22;6865;52.552;13.434;2022-12-18T00:43:25;-4.30;99.90
13589;DHT22;6865;52.552;13.434;2022-12-18T00:45:51;-4.40;99.90
13589;DHT22;6865;52.552;13.434;2022-12-18T00:48:18;-5.00;99.90
13589;DHT22;6865;52.552;13.434;2022-12-18T00:50:46;-4.40;99.90
13589;DHT22;6865;52.552;13.434;2022-12-18T00:53:13;-4.70;99.90
13589;DHT22;6865;52.552;13.434;2022-12-18T00:55:40;-4.50;99.90
13589;DHT22;6865;52.552;13.434;2022-12-18T00:58:09;-4.50;99.90
13589;DHT22;6865;52.552;13.434;2022-12-18T01:00:36;-4.50;99.90
13589;DHT22;6865;52.552;13.434;2022-12-18T01:03:04;-4.50;99.90
13589;DHT22;6865;52.552;13.434;2022-12-18T01:05:31;-4.50;99.90
13589;DHT22;6865;52.552;13.434;2022-12-18T01:07:58;-4.50;99.90
13589;DHT22;6865;52.552;13.434;2022-12-18T01:10:25;-4.50;99.90
13589;DHT22;6865;52.552;13.434;2022-12-18T01:12:52;-4.70;99.90
13589;DHT22;6865;52.552;13.434;2022-12-18T01:15:20;-4.30;99.90
13589;DHT22;6865;52.552;13.434;2022-12-18T01:17:46;-4.50;99.90
13589;DHT22;6865;52.552;13.434;2022-12-18T01:20:13;-4.60;99.90
13589;DHT22;6865;52.552;13.434;2022-12-18T01:22:40;-4.60;99.90
13589;DHT22;6865;52.552;13.434;2022-12-18T01:25:07;-4.80;99.90
13589;DHT22;6865;52.552;13.434;2022-12-18T01:27:34;-4.80;99.90
13589;DHT22;6865;52.552;13.434;2022-12-18T01:30:00;-5.30;99.90
13589;DHT22;6865;52.552;13.434;2022-12-18T01:32:30;-4.80;99.90
13589;DHT22;6865;52.552;13.434;2022-12-18T01:34:57;-4.80;99.90
13589;DHT22;6865;52.552;13.434;2022-12-18T01:37:24;-4.80;99.90
13589;DHT22;6865;52.552;13.434;2022-12-18T01:39:52;-4.80;99.90
13589;DHT22;6865;52.552;13.434;2022-12-18T01:42:21;-4.80;99.90
13589;DHT22;6865;52.552;13.434;2022-12-18T01:45:01;-4.70;99.90
13589;DHT22;6865;52.552;13.434;2022-12-18T01:50:15;-4.70;99.90
13589;DHT22;6865;52.552;13.434;2022-12-18T01:52:48;-4.60;99.90
13589;DHT22;6865;52.552;13.434;2022-12-18T01:55:17;-4.90;99.90
13589;DHT22;6865;52.552;13.434;2022-12-18T01:57:44;-4.70;99.90
13589;DHT22;6865;52.552;13.434;2022-12-18T02:00:17;-4.70;99.90
13589;DHT22;6865;52.552;13.434;2022-12-18T02:02:45;-4.70;99.90
13589;DHT22;6865;52.552;13.434;2022-12-18T02:05:16;-4.70;99.90
13589;DHT22;6865;52.552;13.434;2022-12-18T02:08:01;-4.90;99.90
13589;DHT22;6865;52.552;13.434;2022-12-18T02:10:44;-4.90;99.90
13589;DHT22;6865;52.552;13.434;2022-12-18T02:13:19;-5.20;99.90
13589;DHT22;6865;52.552;13.434;2022-12-18T02:16:00;-5.00;99.90
13589;DHT22;6865;52.552;13.434;2022-12-18T02:18:38;-4.90;99.90
13589;DHT22;6865;52.552;13.434;2022-12-18T02:21:25;-4.80;99.90
13589;DHT22;6865;52.552;13.434;2022-12-18T02:24:07;-5.00;99.90
13589;DHT22;6865;52.552;13.434;2022-12-18T02:26:45;-4.90;99.90
13589;DHT22;6865;52.552;13.434;2022-12-18T02:29:22;-4.90;99.90
13589;DHT22;6865;52.552;13.434;2022-12-18T02:31:54;-4.90;99.90
13589;DHT22;6865;52.552;13.434;2022-12-18T02:34:32;-4.90;99.90
13589;DHT22;6865;52.552;13.434;2022-12-18T02:37:04;-4.90;99.90
13589;DHT22;6865;52.552;13.434;2022-12-18T02:39:33;-4.90;99.90
13589;DHT22;6865;52.552;13.434;2022-12-18T02:42:00;-4.90;99.90
13589;DHT22;6865;52.552;13.434;2022-12-18T02:44:35;-4.90;99.90
13589;DHT22;6865;52.552;13.434;2022-12-18T02:47:10;-4.80;99.90
13589;DHT22;6865;52.552;13.434;2022-12-18T02:50:08;-5.20;99.90
13589;DHT22;6865;52.552;13.434;2022-12-18T02:55:35;-4.80;99.90
13589;DHT22;6865;52.552;13.434;2022-12-18T02:58:19;-4.70;99.90
13589;DHT22;6865;52.552;13.434;2022-12-18T03:00:52;-4.70;99.90
13589;DHT22;6865;52.552;13.434;2022-12-18T03:03:26;-4.70;99.90
13589;DHT22;6865;52.552;13.434;2022-12-18T03:06:03;-4.70;99.90
13589;DHT22;6865;52.552;13.434;2022-12-18T03:08:39;-4.70;99.90
13589;DHT22;6865;52.552;13.434;2022-12-18T03:11:08;-4.90;99.90
13589;DHT22;6865;52.552;13.434;2022-12-18T03:13:40;-5.00;99.90
13589;DHT22;6865;52.552;13.434;2022-12-18T03:16:11;-5.10;99.90
13589;DHT22;6865;52.552;13.434;2022-12-18T03:18:44;-5.10;99.90
13589;DHT22;6865;52.552;13.434;2022-12-18T03:21:13;-4.90;99.90
13589;DHT22;6865;52.552;13.434;2022-12-18T03:23:43;-5.30;99.90
13589;DHT22;6865;52.552;13.434;2022-12-18T03:26:15;-4.90;99.90
13589;DHT22;6865;52.552;13.434;2022-12-18T03:28:47;-4.90;99.90
13589;DHT22;6865;52.552;13.434;2022-12-18T03:31:16;-4.90;99.90
13589;DHT22;6865;52.552;13.434;2022-12-18T03:33:53;-4.90;99.90
13589;DHT22;6865;52.552;13.434;2022-12-18T03:36:21;-4.90;99.90
13589;DHT22;6865;52.552;13.434;2022-12-18T03:38:49;-4.90;99.90
13589;DHT22;6865;52.552;13.434;2022-12-18T03:41:35;-4.90;99.90
13589;DHT22;6865;52.552;13.434;2022-12-18T03:44:20;-5.10;99.90
13589;DHT22;6865;52.552;13.434;2022-12-18T03:47:05;-5.00;99.90
13589;DHT22;6865;52.552;13.434;2022-12-18T03:49:46;-5.00;99.90
13589;DHT22;6865;52.552;13.434;2022-12-18T03:52:27;-5.00;99.90
13589;DHT22;6865;52.552;13.434;2022-12-18T03:54:57;-5.00;99.90
13589;DHT22;6865;52.552;13.434;2022-12-18T03:57:26;-5.00;99.90
13589;DHT22;6865;52.552;13.434;2022-12-18T04:00:00;-5.00;99.90
13589;DHT22;6865;52.552;13.434;2022-12-18T04:02:30;-5.00;99.90
13589;DHT22;6865;52.552;13.434;2022-12-18T04:05:01;-5.10;99.90
13589;DHT22;6865;52.552;13.434;2022-12-18T04:07:29;-5.20;99.90
13589;DHT22;6865;52.552;13.434;2022-12-18T04:09:56;-5.30;99.90
13589;DHT22;6865;52.552;13.434;2022-12-18T04:12:25;-5.30;99.90
13589;DHT22;6865;52.552;13.434;2022-12-18T04:14:52;-5.30;99.90
13589;DHT22;6865;52.552;13.434;2022-12-18T04:17:19;-5.40;99.90
13589;DHT22;6865;52.552;13.434;2022-12-18T04:19:45;-5.40;99.90
13589;DHT22;6865;52.552;13.434;2022-12-18T04:22:12;-5.30;99.90
13589;DHT22;6865;52.552;13.434;2022-12-18T04:24:39;-5.30;99.90
13589;DHT22;6865;52.552;13.434;2022-12-18T04:27:06;-5.30;99.90
13589;DHT22;6865;52.552;13.434;2022-12-18T04:29:32;-5.30;99.90
13589;DHT22;6865;52.552;13.434;2022-12-18T04:31:59;-5.30;99.90
13589;DHT22;6865;52.552;13.434;2022-12-18T04:34:26;-4.90;99.90
13589;DHT22;6865;52.552;13.434;2022-12-18T04:36:53;-5.20;99.90
13589;DHT22;6865;52.552;13.434;2022-12-18T04:39:19;-5.30;99.90
13589;DHT22;6865;52.552;13.434;2022-12-18T04:41:46;-5.20;99.90
13589;DHT22;6865;52.552;13.434;2022-12-18T04:44:13;-5.20;99.90
13589;DHT22;6865;52.552;13.434;2022-12-18T04:46:39;-5.20;99.90
13589;DHT22;6865;52.552;13.434;2022-12-18T04:49:06;-5.30;99.90
13589;DHT22;6865;52.552;13.434;2022-12-18T04:51:33;-5.30;99.90
13589;DHT22;6865;52.552;13.434;2022-12-18T04:53:59;-5.30;99.90
13589;DHT22;6865;52.552;13.434;2022-12-18T04:56:26;-5.30;99.90
13589;DHT22;6865;52.552;13.434;2022-12-18T04:58:53;-5.40;99.90
13589;DHT22;6865;52.552;13.434;2022-12-18T05:01:19;-5.50;99.90
13589;DHT22;6865;52.552;13.434;2022-12-18T05:03:46;-5.50;99.90
13589;DHT22;6865;52.552;13.434;2022-12-18T05:06:13;-5.50;99.90
13589;DHT22;6865;52.552;13.434;2022-12-18T05:08:40;-5.60;99.90
13589;DHT22;6865;52.552;13.434;2022-12-18T05:11:10;-5.50;99.90
13589;DHT22;6865;52.552;13.434;2022-12-18T05:13:37;-5.40;99.90
13589;DHT22;6865;52.552;13.434;2022-12-18T05:16:05;-5.70;99.90
13589;DHT22;6865;52.552;13.434;2022-12-18T05:18:32;-5.70;99.90
13589;DHT22;6865;52.552;13.434;2022-12-18T05:20:59;-5.60;99.90
13589;DHT22;6865;52.552;13.434;2022-12-18T05:23:26;-5.70;99.90
13589;DHT22;6865;52.552;13.434;2022-12-18T05:25:58;-5.80;99.90
13589;DHT22;6865;52.552;13.434;2022-12-18T05:28:26;-5.60;99.90
13589;DHT22;6865;52.552;13.434;2022-12-18T05:30:55;-5.50;99.90
13589;DHT22;6865;52.552;13.434;2022-12-18T05:33:24;-5.40;99.90
13589;DHT22;6865;52.552;13.434;2022-12-18T05:35:52;-5.40;99.90
13589;DHT22;6865;52.552;13.434;2022-12-18T05:38:20;-5.30;99.90
13589;DHT22;6865;52.552;13.434;2022-12-18T05:40:47;-5.30;99.90
13589;DHT22;6865;52.552;13.434;2022-12-18T05:43:14;-5.30;99.90
13589;DHT22;6865;52.552;13.434;2022-12-18T05:45:47;-5.30;99.90
13589;DHT22;6865;52.552;13.434;2022-12-18T05:48:14;-5.30;99.90
13589;DHT22;6865;52.552;13.434;2022-12-18T05:50:43;-5.30;99.90
13589;DHT22;6865;52.552;13.434;2022-12-18T05:53:12;-5.30;99.90
13589;DHT22;6865;52.552;13.434;2022-12-18T05:55:40;-5.30;99.90
13589;DHT22;6865;52.552;13.434;2022-12-18T05:58:08;-5.30;99.90
13589;DHT22;6865;52.552;13.434;2022-12-18T06:00:38;-5.30;99.90
13589;DHT22;6865;52.552;13.434;2022-12-18T06:03:09;-5.20;99.90
13589;DHT22;6865;52.552;13.434;2022-12-18T06:05:37;-5.20;99.90
13589;DHT22;6865;52.552;13.434;2022-12-18T06:08:04;-5.10;99.90
13589;DHT22;6865;52.552;13.434;2022-12-18T06:10:31;-5.10;99.90
13589;DHT22;6865;52.552;13.434;2022-12-18T06:12:58;-5.00;99.90
13589;DHT22;6865;52.552;13.434;2022-12-18T06:15:25;-4.90;99.90
13589;DHT22;6865;52.552;13.434;2022-12-18T06:17:52;-5.00;99.90
13589;DHT22;6865;52.552;13.434;2022-12-18T06:20:18;-5.00;99.90
13589;DHT22;6865;52.552;13.434;2022-12-18T06:22:45;-5.20;99.90
13589;DHT22;6865;52.552;13.434;2022-12-18T06:25:12;-5.30;99.90
13589;DHT22;6865;52.552;13.434;2022-12-18T06:27:38;-5.30;99.90
13589;DHT22;6865;52.552;13.434;2022-12-18T06:30:07;-5.30;99.90
13589;DHT22;6865;52.552;13.434;2022-12-18T06:32:34;-5.30;99.90
13589;DHT22;6865;52.552;13.434;2022-12-18T06:35:01;-5.30;99.90
13589;DHT22;6865;52.552;13.434;2022-12-18T06:37:28;-5.20;99.90
13589;DHT22;6865;52.552;13.434;2022-12-18T06:39:54;-5.00;99.90
13589;DHT22;6865;52.552;13.434;2022-12-18T06:42:23;-5.00;99.90
13589;DHT22;6865;52.552;13.434;2022-12-18T06:44:50;-5.00;99.90
13589;DHT22;6865;52.552;13.434;2022-12-18T06:47:18;-5.00;99.90
13589;DHT22;6865;52.552;13.434;2022-12-18T06:49:44;-5.00;99.90
13589;DHT22;6865;52.552;13.434;2022-12-18T06:52:11;-4.70;99.90
13589;DHT22;6865;52.552;13.434;2022-12-18T06:54:38;-5.00;99.90
13589;DHT22;6865;52.552;13.434;2022-12-18T06:57:04;-5.00;99.90
13589;DHT22;6865;52.552;13.434;2022-12-18T06:59:31;-5.20;99.90
13589;DHT22;6865;52.552;13.434;2022-12-18T07:01:57;-5.10;99.90
13589;DHT22;6865;52.552;13.434;2022-12-18T07:04:31;-5.10;99.90
13589;DHT22;6865;52.552;13.434;2022-12-18T07:06:58;-5.10;99.90
13589;DHT22;6865;52.552;13.434;2022-12-18T07:09:25;-5.20;99.90
13589;DHT22;6865;52.552;13.434;2022-12-18T07:11:52;-5.10;99.90
13589;DHT22;6865;52.552;13.434;2022-12-18T07:14:19;-5.20;99.90
13589;DHT22;6865;52.552;13.434;2022-12-18T07:16:45;-5.50;99.90
13589;DHT22;6865;52.552;13.434;2022-12-18T07:19:12;-5.50;99.90
13589;DHT22;6865;52.552;13.434;2022-12-18T07:21:39;-5.40;99.90
13589;DHT22;6865;52.552;13.434;2022-12-18T07:24:06;-5.40;99.90
13589;DHT22;6865;52.552;13.434;2022-12-18T07:26:32;-5.40;99.90
13589;DHT22;6865;52.552;13.434;2022-12-18T07:28:59;-5.40;99.90
13589;DHT22;6865;52.552;13.434;2022-12-18T07:31:26;-5.30;99.90
13589;DHT22;6865;52.552;13.434;2022-12-18T07:33:53;-5.30;99.90
13589;DHT22;6865;52.552;13.434;2022-12-18T07:36:20;-5.20;99.90
13589;DHT22;6865;52.552;13.434;2022-12-18T07:38:48;-5.20;99.90
13589;DHT22;6865;52.552;13.434;2022-12-18T07:41:15;-5.20;99.90
13589;DHT22;6865;52.552;13.434;2022-12-18T07:43:42;-5.20;99.90
13589;DHT22;6865;52.552;13.434;2022-12-18T07:46:10;-5.10;99.90
13589;DHT22;6865;52.552;13.434;2022-12-18T07:48:39;-5.00;99.90
13589;DHT22;6865;52.552;13.434;2022-12-18T07:51:07;-5.10;99.90
13589;DHT22;6865;52.552;13.434;2022-12-18T07:53:35;-5.00;99.90
13589;DHT22;6865;52.552;13.434;2022-12-18T07:56:05;-5.10;99.90
13589;DHT22;6865;52.552;13.434;2022-12-18T07:58:53;-5.00;99.90
13589;DHT22;6865;52.552;13.434;2022-12-18T08:01:19;-4.90;99.90
13589;DHT22;6865;52.552;13.434;2022-12-18T08:03:47;-5.00;99.90
13589;DHT22;6865;52.552;13.434;2022-12-18T08:06:15;-5.10;99.90
13589;DHT22;6865;52.552;13.434;2022-12-18T08:08:46;-5.00;99.90
13589;DHT22;6865;52.552;13.434;2022-12-18T08:11:13;-3.10;99.90
13589;DHT22;6865;52.552;13.434;2022-12-18T08:13:39;-4.90;99.90
13589;DHT22;6865;52.552;13.434;2022-12-18T08:16:07;-4.60;99.90
13589;DHT22;6865;52.552;13.434;2022-12-18T08:18:36;-4.90;99.90
13589;DHT22;6865;52.552;13.434;2022-12-18T08:21:14;-5.00;99.90
13589;DHT22;6865;52.552;13.434;2022-12-18T08:23:41;-4.90;99.90
13589;DHT22;6865;52.552;13.434;2022-12-18T08:26:11;-5.00;99.90
13589;DHT22;6865;52.552;13.434;2022-12-18T08:28:38;-4.90;99.90
13589;DHT22;6865;52.552;13.434;2022-12-18T08:31:05;-4.80;99.90
13589;DHT22;6865;52.552;13.434;2022-12-18T08:33:32;-4.80;99.90
13589;DHT22;6865;52.552;13.434;2022-12-18T08:35:59;-4.70;99.90
13589;DHT22;6865;52.552;13.434;2022-12-18T08:38:27;-4.80;99.90
13589;DHT22;6865;52.552;13.434;2022-12-18T08:41:05;-4.70;99.90
13589;DHT22;6865;52.552;13.434;2022-12-18T08:43:32;-4.70;99.90
13589;DHT22;6865;52.552;13.434;2022-12-18T08:46:18;-4.80;99.90
13589;DHT22;6865;52.552;13.434;2022-12-18T08:48:45;-4.70;99.90
13589;DHT22;6865;52.552;13.434;2022-12-18T08:51:13;-4.80;99.90
13589;DHT22;6865;52.552;13.434;2022-12-18T08:53:41;-4.60;99.90
13589;DHT22;6865;52.552;13.434;2022-12-18T08:56:09;-4.50;99.90
13589;DHT22;6865;52.552;13.434;2022-12-18T08:58:35;-4.60;99.90
13589;DHT22;6865;52.552;13.434;2022-12-18T09:01:04;-4.50;99.90
13589;DHT22;6865;52.552;13.434;2022-12-18T09:03:31;-4.60;99.90
13589;DHT22;6865;52.552;13.434;2022-12-18T09:05:58;-4.50;99.90
13589;DHT22;6865;52.552;13.434;2022-12-18T09:08:26;-4.30;99.90
13589;DHT22;6865;52.552;13.434;2022-12-18T09:10:53;-4.30;99.90
13589;DHT22;6865;52.552;13.434;2022-12-18T09:13:20;-4.30;99.90
13589;DHT22;6865;52.552;13.434;2022-12-18T09:15:50;-4.40;99.90
13589;DHT22;6865;52.552;13.434;2022-12-18T09:18:18;-4.30;99.90
13589;DHT22;6865;52.552;13.434;2022-12-18T09:20:45;-5.10;99.90
13589;DHT22;6865;52.552;13.434;2022-12-18T09:23:12;-4.30;99.90
13589;DHT22;6865;52.552;13.434;2022-12-18T09:25:40;-4.30;99.90
13589;DHT22;6865;52.552;13.434;2022-12-18T09:28:14;-4.20;99.90
13589;DHT22;6865;52.552;13.434;2022-12-18T09:30:48;-4.20;99.90
13589;DHT22;6865;52.552;13.434;2022-12-18T09:33:16;-4.10;99.90
13589;DHT22;6865;52.552;13.434;2022-12-18T09:35:44;-4.10;99.90
13589;DHT22;6865;52.552;13.434;2022-12-18T09:38:13;-4.10;99.90
13589;DHT22;6865;52.552;13.434;2022-12-18T09:43:44;-3.90;99.90
13589;DHT22;6865;52.552;13.434;2022-12-18T09:46:27;-3.80;99.90
13589;DHT22;6865;52.552;13.434;2022-12-18T09:48:59;-3.80;99.90
13589;DHT22;6865;52.552;13.434;2022-12-18T09:51:30;-4.00;99.90
13589;DHT22;6865;52.552;13.434;2022-12-18T09:54:03;-3.80;99.90
13589;DHT22;6865;52.552;13.434;2022-12-18T09:56:35;-3.70;99.90
13589;DHT22;6865;52.552;13.434;2022-12-18T09:59:04;-3.80;99.90
13589;DHT22;6865;52.552;13.434;2022-12-18T10:01:32;-3.70;99.90
13589;DHT22;6865;52.552;13.434;2022-12-18T10:04:09;-3.70;99.90
13589;DHT22;6865;52.552;13.434;2022-12-18T10:07:02;-3.80;99.90
13589;DHT22;6865;52.552;13.434;2022-12-18T10:09:43;-3.80;99.90
13589;DHT22;6865;52.552;13.434;2022-12-18T10:12:32;-3.70;99.90
13589;DHT22;6865;52.552;13.434;2022-12-18T10:15:07;-3.70;99.90
13589;DHT22;6865;52.552;13.434;2022-12-18T10:17:55;-3.60;99.90
13589;DHT22;6865;52.552;13.434;2022-12-18T10:20:50;-3.60;99.90
13589;DHT22;6865;52.552;13.434;2022-12-18T10:23:33;-3.60;99.90
13589;DHT22;6865;52.552;13.434;2022-12-18T10:26:10;-3.80;99.90
13589;DHT22;6865;52.552;13.434;2022-12-18T10:28:39;-3.50;99.90
13589;DHT22;6865;52.552;13.434;2022-12-18T10:31:16;-3.50;99.90
13589;DHT22;6865;52.552;13.434;2022-12-18T10:33:45;-3.40;99.90
13589;DHT22;6865;52.552;13.434;2022-12-18T10:36:12;-3.40;99.90
13589;DHT22;6865;52.552;13.434;2022-12-18T10:38:40;-3.30;99.90
13589;DHT22;6865;52.552;13.434;2022-12-18T10:41:25;-3.20;99.90
13589;DHT22;6865;52.552;13.434;2022-12-18T10:46:39;-3.00;99.90
13589;DHT22;6865;52.552;13.434;2022-12-18T10:49:19;-3.00;99.90
13589;DHT22;6865;52.552;13.434;2022-12-18T10:51:46;-3.00;99.90
13589;DHT22;6865;52.552;13.434;2022-12-18T10:54:17;-3.10;99.90
13589;DHT22;6865;52.552;13.434;2022-12-18T10:56:44;-3.10;99.90
13589;DHT22;6865;52.552;13.434;2022-12-18T10:59:13;-3.00;99.90
13589;DHT22;6865;52.552;13.434;2022-12-18T11:01:55;-2.90;99.90
13589;DHT22;6865;52.552;13.434;2022-12-18T11:04:30;-2.90;99.90
13589;DHT22;6865;52.552;13.434;2022-12-18T11:07:00;-2.90;99.90
13589;DHT22;6865;52.552;13.434;2022-12-18T11:09:30;-2.90;99.90
13589;DHT22;6865;52.552;13.434;2022-12-18T11:12:02;-2.90;99.90
13589;DHT22;6865;52.552;13.434;2022-12-18T11:17:29;-2.70;99.90
13589;DHT22;6865;52.552;13.434;2022-12-18T11:19:58;-2.70;99.90
13589;DHT22;6865;52.552;13.434;2022-12-18T11:25:01;-2.70;99.90
13589;DHT22;6865;52.552;13.434;2022-12-18T11:27:52;-2.80;99.90
13589;DHT22;6865;52.552;13.434;2022-12-18T11:30:28;-2.90;99.90
13589;DHT22;6865;52.552;13.434;2022-12-18T11:35:47;-2.90;99.90
13589;DHT22;6865;52.552;13.434;2022-12-18T11:38:20;-2.90;99.90
13589;DHT22;6865;52.552;13.434;2022-12-18T11:46:14;-2.80;99.90
13589;DHT22;6865;52.552;13.434;2022-12-18T11:48:58;-2.90;99.90
13589;DHT22;6865;52.552;13.434;2022-12-18T11:51:38;-2.90;99.90
13589;DHT22;6865;52.552;13.434;2022-12-18T11:54:14;-3.00;99.90
13589;DHT22;6865;52.552;13.434;2022-12-18T11:56:58;-3.00;99.90
13589;DHT22;6865;52.552;13.434;2022-12-18T12:02:42;-2.90;99.90
13589;DHT22;6865;52.552;13.434;2022-12-18T12:11:06;-3.10;99.90
13589;DHT22;6865;52.552;13.434;2022-12-18T12:16:33;-3.10;99.90
13589;DHT22;6865;52.552;13.434;2022-12-18T12:22:08;-3.10;99.90
13589;DHT22;6865;52.552;13.434;2022-12-18T12:27:45;-3.20;99.90
13589;DHT22;6865;52.552;13.434;2022-12-18T12:30:21;-3.20;99.90
13589;DHT22;6865;52.552;13.434;2022-12-18T12:33:14;-2.50;99.90
13589;DHT22;6865;52.552;13.434;2022-12-18T12:35:55;-3.00;99.90
13589;DHT22;6865;52.552;13.434;2022-12-18T12:38:30;-3.10;99.90
13589;DHT22;6865;52.552;13.434;2022-12-18T12:41:02;-3.10;99.90
13589;DHT22;6865;52.552;13.434;2022-12-18T12:43:47;-3.00;99.90
13589;DHT22;6865;52.552;13.434;2022-12-18T12:46:19;-2.90;99.90
13589;DHT22;6865;52.552;13.434;2022-12-18T12:48:50;-3.00;99.90
13589;DHT22;6865;52.552;13.434;2022-12-18T12:51:36;-2.90;99.90
13589;DHT22;6865;52.552;13.434;2022-12-18T12:54:11;-2.90;99.90
13589;DHT22;6865;52.552;13.434;2022-12-18T12:56:49;-2.80;99.90
13589;DHT22;6865;52.552;13.434;2022-12-18T13:02:33;-2.80;99.90
13589;DHT22;6865;52.552;13.434;2022-12-18T13:05:24;-2.80;99.90
13589;DHT22;6865;52.552;13.434;2022-12-18T13:07:56;-2.80;99.90
13589;DHT22;6865;52.552;13.434;2022-12-18T13:10:26;-2.90;99.90
13589;DHT22;6865;52.552;13.434;2022-12-18T13:15:37;-2.90;99.90
13589;DHT22;6865;52.552;13.434;2022-12-18T13:20:37;-3.10;99.90
13589;DHT22;6865;52.552;13.434;2022-12-18T13:36:56;-3.00;99.90
13589;DHT22;6865;52.552;13.434;2022-12-18T13:39:32;-3.00;99.90
13589;DHT22;6865;52.552;13.434;2022-12-18T13:44:39;-2.80;99.90
13589;DHT22;6865;52.552;13.434;2022-12-18T13:47:33;-2.90;99.90
13589;DHT22;6865;52.552;13.434;2022-12-18T13:50:09;-2.90;99.90
13589;DHT22;6865;52.552;13.434;2022-12-18T13:52:38;-3.00;99.90
13589;DHT22;6865;52.552;13.434;2022-12-18T13:55:15;-2.90;99.90
13589;DHT22;6865;52.552;13.434;2022-12-18T13:57:42;-2.90;99.90
13589;DHT22;6865;52.552;13.434;2022-12-18T14:00:28;-2.60;99.90
13589;DHT22;6865;52.552;13.434;2022-12-18T14:02:57;-2.80;99.90
13589;DHT22;6865;52.552;13.434;2022-12-18T14:05:26;-2.80;99.90
13589;DHT22;6865;52.552;13.434;2022-12-18T14:07:53;-2.80;99.90
13589;DHT22;6865;52.552;13.434;2022-12-18T14:10:22;-2.80;99.90
13589;DHT22;6865;52.552;13.434;2022-12-18T14:13:14;-2.90;99.90
13589;DHT22;6865;52.552;13.434;2022-12-18T14:15:43;-1.30;99.90
13589;DHT22;6865;52.552;13.434;2022-12-18T14:21:00;-3.10;99.90
13589;DHT22;6865;52.552;13.434;2022-12-18T14:23:39;-3.10;99.90
13589;DHT22;6865;52.552;13.434;2022-12-18T14:26:27;-3.10;99.90
13589;DHT22;6865;52.552;13.434;2022-12-18T14:29:19;-3.10;99.90
13589;DHT22;6865;52.552;13.434;2022-12-18T14:32:04;-3.10;99.90
13589;DHT22;6865;52.552;13.434;2022-12-18T14:34:36;-3.20;99.90
13589;DHT22;6865;52.552;13.434;2022-12-18T14:37:02;-3.10;99.90
13589;DHT22;6865;52.552;13.434;2022-12-18T14:39:29;-3.20;99.90
13589;DHT22;6865;52.552;13.434;2022-12-18T14:41:56;-3.30;99.90
13589;DHT22;6865;52.552;13.434;2022-12-18T14:44:23;-3.50;99.90
13589;DHT22;6865;52.552;13.434;2022-12-18T14:46:50;-3.10;99.90
13589;DHT22;6865;52.552;13.434;2022-12-18T14:49:21;-3.30;99.90
13589;DHT22;6865;52.552;13.434;2022-12-18T14:51:53;-3.40;99.90
13589;DHT22;6865;52.552;13.434;2022-12-18T14:54:22;-3.40;99.90
13589;DHT22;6865;52.552;13.434;2022-12-18T14:57:20;-3.30;99.90
13589;DHT22;6865;52.552;13.434;2022-12-18T14:59:47;-3.40;99.90
13589;DHT22;6865;52.552;13.434;2022-12-18T15:02:21;-3.40;99.90
13589;DHT22;6865;52.552;13.434;2022-12-18T15:05:04;-3.40;99.90
13589;DHT22;6865;52.552;13.434;2022-12-18T15:07:43;-3.40;99.90
13589;DHT22;6865;52.552;13.434;2022-12-18T15:10:14;-3.50;99.90
13589;DHT22;6865;52.552;13.434;2022-12-18T15:18:03;-3.40;99.90
13589;DHT22;6865;52.552;13.434;2022-12-18T15:20:32;-3.80;99.90
13589;DHT22;6865;52.552;13.434;2022-12-18T15:22:59;-3.40;99.90
13589;DHT22;6865;52.552;13.434;2022-12-18T15:25:36;-3.00;99.90
13589;DHT22;6865;52.552;13.434;2022-12-18T15:28:32;-3.40;99.90
13589;DHT22;6865;52.552;13.434;2022-12-18T15:36:21;-3.20;99.90
13589;DHT22;6865;52.552;13.434;2022-12-18T15:38:54;-3.50;99.90
13589;DHT22;6865;52.552;13.434;2022-12-18T15:41:32;-3.50;99.90
13589;DHT22;6865;52.552;13.434;2022-12-18T15:44:02;-3.50;99.90
13589;DHT22;6865;52.552;13.434;2022-12-18T15:46:29;-3.40;99.90
13589;DHT22;6865;52.552;13.434;2022-12-18T15:48:58;-3.40;99.90
13589;DHT22;6865;52.552;13.434;2022-12-18T15:51:32;-3.40;99.90
13589;DHT22;6865;52.552;13.434;2022-12-18T15:54:02;-3.50;99.90
13589;DHT22;6865;52.552;13.434;2022-12-18T15:56:32;-2.50;99.90
13589;DHT22;6865;52.552;13.434;2022-12-18T15:59:19;-3.60;99.90
13589;DHT22;6865;52.552;13.434;2022-12-18T16:01:48;-3.60;99.90
13589;DHT22;6865;52.552;13.434;2022-12-18T16:04:17;-3.60;99.90
13589;DHT22;6865;52.552;13.434;2022-12-18T16:06:50;-3.50;99.90
13589;DHT22;6865;52.552;13.434;2022-12-18T16:09:38;-3.50;99.90
13589;DHT22;6865;52.552;13.434;2022-12-18T16:12:06;-3.80;99.90
13589;DHT22;6865;52.552;13.434;2022-12-18T16:14:39;-3.60;99.90
13589;DHT22;6865;52.552;13.434;2022-12-18T16:17:09;-3.60;99.90
13589;DHT22;6865;52.552;13.434;2022-12-18T16:19:36;-3.60;99.90
13589;DHT22;6865;52.552;13.434;2022-12-18T16:22:03;-3.60;99.90
13589;DHT22;6865;52.552;13.434;2022-12-18T16:24:31;-3.60;99.90
13589;DHT22;6865;52.552;13.434;2022-12-18T16:26:59;-3.50;99.90
13589;DHT22;6865;52.552;13.434;2022-12-18T16:29:27;-3.40;99.90
13589;DHT22;6865;52.552;13.434;2022-12-18T16:31:55;-3.40;99.90
13589;DHT22;6865;52.552;13.434;2022-12-18T16:34:24;-3.50;99.90
13589;DHT22;6865;52.552;13.434;2022-12-18T16:37:00;-3.60;99.90
13589;DHT22;6865;52.552;13.434;2022-12-18T16:39:32;-3.50;99.90
13589;DHT22;6865;52.552;13.434;2022-12-18T16:42:15;-3.40;99.90
13589;DHT22;6865;52.552;13.434;2022-12-18T16:44:43;-3.40;99.90
13589;DHT22;6865;52.552;13.434;2022-12-18T16:47:10;-3.60;99.90
13589;DHT22;6865;52.552;13.434;2022-12-18T16:49:40;-3.40;99.90
13589;DHT22;6865;52.552;13.434;2022-12-18T16:52:08;-3.50;99.90
13589;DHT22;6865;52.552;13.434;2022-12-18T16:54:34;-3.10;99.90
13589;DHT22;6865;52.552;13.434;2022-12-18T16:57:03;-3.40;99.90
13589;DHT22;6865;52.552;13.434;2022-12-18T16:59:31;-3.40;99.90
13589;DHT22;6865;52.552;13.434;2022-12-18T17:01:58;-3.40;99.90
13589;DHT22;6865;52.552;13.434;2022-12-18T17:04:25;-3.40;99.90
13589;DHT22;6865;52.552;13.434;2022-12-18T17:06:52;-3.40;99.90
13589;DHT22;6865;52.552;13.434;2022-12-18T17:09:20;-3.40;99.90
13589;DHT22;6865;52.552;13.434;2022-12-18T17:11:51;-3.50;99.90
13589;DHT22;6865;52.552;13.434;2022-12-18T17:14:20;-3.50;99.90
13589;DHT22;6865;52.552;13.434;2022-12-18T17:16:47;-3.60;99.90